Aérodrome :
LOGIN :

S'inscrire | Disclaimer

   EN    FR    IT 

 










Légende :    VFR   VFR Marginal   IFR   IFR Intensif   IFR Très Intensif
Visi : 
Plafond : 
>= 8 km
>= 3000ft
5 à 8 km
1000 à 3000 ft
1500m à 5 km
500 à 1000 ft
800 à 1500m
200 à 500 ft
< 800m
< 200 ft
Symboles :   Orages  Brouillard  Fortes neiges  Fortes précipitations  Vent > 20 kt
SIGMETs :   Divers  Orages  Givrage  Turbulence  Onde Orograph.  Cendres Volcan.







- Altitude de l'aérodrome : 1674 ft
- Code IATA : BRN


LSZB - Bern Belp

DERNIER METAR :
  • 222320Z AUTO VRB03KT 9999 FEW043 OVC050 08/07 Q1021

METARs EXPIRÉS :
  • 222250Z AUTO 35005KT 310V020 9999 BKN047 09/07 Q1020
  • 222220Z AUTO 30003KT 230V350 9999 -RA BKN046 09/07 Q1020
  • 222150Z AUTO 27008KT 9999 DZ SCT023 SCT037 09/07 Q1019
  • 222120Z AUTO 26011KT 9999 SCT032 BKN037 10/07 Q1019
  • 222050Z 27008KT 9999 -RA FEW023 BKN046 10/07 Q1018 WS ALL RWY NOSIG

TAF TAF LSZB
Valide du 22 à 15h jusqu'au 23 à 00h UTC


221425Z 2215/2224 24008KT 8000 -RA SCT020 BKN035
PROB40
TEMPO 2215/2221 24015G25KT 4000 +RA BKN005
ATIS : +41 22 417 40 76
Pas de NOTAMs connus pour ce terrain.



MET'MAP, la Météo Aéronautique d'un coup d'oeil ! - Copyright ORBIFLY Décembre 2007 - Disclaimer

ORBIFLY MET'MAP TEAM :

Programmation & Développement : Alexandra Zaïnal
Conception & Développement : Baudouin d'Aumeries
Co-Programmation & Développement : Marc-Olivier Méhu
Soutien technique & logistique : Manuel Goepfert

Contact : metmap@orbifly.com




SOURCES & CREDITS :

   NOAA